Time;durP1;ratioP1;P1;durP2;ratioP2;P2;SDS_P1;SDS_P2;PMS_P1;PMS_P2;Temp;Humidity;BMP_temperature;BMP_pressure;BME280_temperature;BME280_humidity;BME280_pressure;Samples;Min_cycle;Max_cycle;Signal;HPM_P1;HPM_P2
2021/09/13 00:00:05;;;;;;;2.50;2.07;;;24.20;59.20;;;;;;4925677;29;20458;-72
2021/09/13 00:02:31;;;;;;;2.77;2.23;;;24.10;59.20;;;;;;4939337;28;20475;-72
2021/09/13 00:04:57;;;;;;;2.40;1.92;;;24.20;59.20;;;;;;4923873;29;20757;-69
2021/09/13 00:07:23;;;;;;;2.20;1.70;;;24.10;59.10;;;;;;4940087;28;20526;-72
2021/09/13 00:09:50;;;;;;;2.13;1.92;;;24.10;59.10;;;;;;4923580;29;20808;-72
2021/09/13 00:12:16;;;;;;;2.55;1.88;;;24.10;59.10;;;;;;4940103;28;20408;-68
2021/09/13 00:14:41;;;;;;;2.00;1.77;;;24.10;59.20;;;;;;4925000;29;20457;-71
2021/09/13 00:17:07;;;;;;;3.30;2.08;;;24.10;59.10;;;;;;4924309;29;21365;-70
2021/09/13 00:19:33;;;;;;;2.00;1.70;;;24.20;59.20;;;;;;4923760;29;20532;-69
2021/09/13 00:21:59;;;;;;;1.98;1.73;;;24.10;59.10;;;;;;4924494;29;20411;-70
2021/09/13 00:24:25;;;;;;;2.20;1.90;;;24.10;59.10;;;;;;4924873;29;20391;-72
2021/09/13 00:26:51;;;;;;;1.98;1.70;;;24.10;59.10;;;;;;4923997;29;20772;-68
2021/09/13 00:29:17;;;;;;;3.10;1.80;;;24.10;59.10;;;;;;4927322;28;20391;-71
2021/09/13 00:31:43;;;;;;;2.53;2.00;;;24.10;59.00;;;;;;4928117;29;20410;-70
2021/09/13 00:34:09;;;;;;;2.40;2.00;;;24.10;59.00;;;;;;4943003;28;20404;-71
2021/09/13 00:36:35;;;;;;;2.53;2.00;;;24.00;58.80;;;;;;4928684;29;20406;-72
2021/09/13 00:39:00;;;;;;;2.90;2.03;;;24.00;58.90;;;;;;4928488;29;20511;-70
2021/09/13 00:41:26;;;;;;;2.30;2.00;;;24.10;59.00;;;;;;4927642;29;20428;-71
2021/09/13 00:43:53;;;;;;;2.10;1.90;;;24.10;58.90;;;;;;4927553;29;20438;-72
2021/09/13 00:46:19;;;;;;;2.25;2.05;;;24.00;58.90;;;;;;4928273;29;20418;-68
2021/09/13 00:48:44;;;;;;;2.13;1.83;;;24.10;59.00;;;;;;4928631;29;20395;-68
2021/09/13 00:51:11;;;;;;;2.38;2.10;;;24.10;59.00;;;;;;4927727;29;20778;-69
2021/09/13 00:53:37;;;;;;;2.90;2.10;;;24.00;58.90;;;;;;4927314;29;20458;-72
2021/09/13 00:56:03;;;;;;;2.30;2.10;;;24.00;58.90;;;;;;4928003;29;20403;-71
2021/09/13 00:58:29;;;;;;;2.20;1.90;;;24.00;58.90;;;;;;4927507;29;20895;-70
2021/09/13 01:00:56;;;;;;;1.95;1.70;;;24.00;58.90;;;;;;4927718;29;20459;-72
2021/09/13 01:03:22;;;;;;;2.20;1.92;;;24.00;59.00;;;;;;4942048;28;20404;-71
2021/09/13 01:05:48;;;;;;;2.30;2.03;;;24.00;58.90;;;;;;4927684;29;20407;-72
2021/09/13 01:08:14;;;;;;;2.95;2.20;;;24.00;58.90;;;;;;4927179;29;20840;-72
2021/09/13 01:10:40;;;;;;;2.50;1.80;;;24.00;58.90;;;;;;4927830;29;20773;-69
2021/09/13 01:13:06;;;;;;;3.13;2.13;;;24.00;59.20;;;;;;4942190;29;20419;-71
2021/09/13 01:15:38;;;;;;;2.17;1.80;;;23.90;59.40;;;;;;4932050;29;20404;-71
2021/09/13 01:18:04;;;;;;;3.05;1.85;;;24.00;59.30;;;;;;4927739;29;20419;-68
2021/09/13 01:20:30;;;;;;;3.00;2.00;;;24.00;59.30;;;;;;4931303;29;20450;-73
2021/09/13 01:23:00;;;;;;;3.50;2.00;;;24.00;59.40;;;;;;4929335;29;20462;-72
2021/09/13 01:25:26;;;;;;;4.00;2.10;;;24.00;59.50;;;;;;4927465;29;20383;-72
2021/09/13 01:27:51;;;;;;;4.37;1.90;;;24.00;59.40;;;;;;4927385;29;20538;-72
2021/09/13 01:30:17;;;;;;;3.35;1.92;;;24.00;59.30;;;;;;4927996;29;20395;-70
2021/09/13 01:32:43;;;;;;;2.83;1.90;;;24.00;59.30;;;;;;4927265;29;20442;-71
2021/09/13 01:35:09;;;;;;;2.90;2.00;;;23.90;59.20;;;;;;4927316;29;20490;-67
2021/09/13 01:37:35;;;;;;;3.77;2.10;;;23.90;59.20;;;;;;4927630;29;20479;-71
2021/09/13 01:40:00;;;;;;;3.70;1.85;;;23.90;59.20;;;;;;4927127;29;20820;-73
2021/09/13 01:42:26;;;;;;;3.80;1.90;;;23.90;59.20;;;;;;4927649;29;20446;-68
2021/09/13 01:44:52;;;;;;;2.80;1.90;;;23.90;59.10;;;;;;4927982;29;20407;-72
2021/09/13 01:47:17;;;;;;;4.20;1.90;;;23.90;59.20;;;;;;4927330;29;20415;-72
2021/09/13 01:49:43;;;;;;;2.97;1.98;;;23.90;59.20;;;;;;4927328;29;20952;-69
2021/09/13 01:52:09;;;;;;;3.67;2.00;;;23.90;59.10;;;;;;4927613;29;20399;-72
2021/09/13 01:54:34;;;;;;;2.35;1.63;;;23.90;59.10;;;;;;4927559;29;20466;-72
2021/09/13 01:57:00;;;;;;;2.70;1.90;;;23.90;59.00;;;;;;4919648;29;20398;-70
2021/09/13 01:59:25;;;;;;;4.27;2.00;;;23.90;59.00;;;;;;4927417;29;20407;-70
2021/09/13 02:01:51;;;;;;;2.85;1.80;;;23.90;59.00;;;;;;4927133;29;20866;-72
2021/09/13 02:04:17;;;;;;;2.50;2.10;;;23.90;59.00;;;;;;4915099;29;20396;-72
2021/09/13 02:06:42;;;;;;;3.17;2.00;;;23.90;58.90;;;;;;4927414;29;20452;-71
2021/09/13 02:09:08;;;;;;;2.45;1.80;;;23.90;58.90;;;;;;4927378;29;20419;-65
2021/09/13 02:11:33;;;;;;;2.37;1.77;;;23.90;59.40;;;;;;4926706;29;20422;-69
2021/09/13 02:13:59;;;;;;;2.55;1.90;;;23.90;58.80;;;;;;4927068;29;20814;-71
2021/09/13 02:16:25;;;;;;;2.60;1.90;;;23.90;58.70;;;;;;4927150;29;20902;-70
2021/09/13 02:18:50;;;;;;;2.50;1.98;;;23.90;58.70;;;;;;4927061;29;20422;-69
2021/09/13 02:21:16;;;;;;;2.10;1.90;;;23.90;58.90;;;;;;4925779;29;20431;-73
2021/09/13 02:23:42;;;;;;;2.70;1.80;;;24.00;58.80;;;;;;4926449;29;20438;-71
2021/09/13 02:26:07;;;;;;;2.20;1.88;;;24.00;58.50;;;;;;4927468;29;20812;-68
2021/09/13 02:28:33;;;;;;;2.13;1.80;;;24.10;58.50;;;;;;4926895;29;20395;-72
2021/09/13 02:30:59;;;;;;;2.45;1.88;;;24.00;58.50;;;;;;4927265;29;20403;-71
2021/09/13 02:33:24;;;;;;;2.65;2.13;;;24.00;58.40;;;;;;4926629;29;20410;-69
2021/09/13 02:35:50;;;;;;;2.83;1.73;;;24.00;58.50;;;;;;4927092;29;20408;-70
2021/09/13 02:38:16;;;;;;;2.75;1.90;;;24.00;58.40;;;;;;4926764;29;20871;-68
2021/09/13 02:40:41;;;;;;;1.90;1.70;;;24.10;58.30;;;;;;4926738;29;20757;-69
2021/09/13 02:43:07;;;;;;;2.30;1.80;;;24.10;58.20;;;;;;4926882;29;20410;-72
2021/09/13 02:45:33;;;;;;;2.33;1.93;;;24.00;58.20;;;;;;4926738;29;21566;-72
2021/09/13 02:47:59;;;;;;;2.58;2.10;;;24.00;58.10;;;;;;4926627;29;20891;-72
2021/09/13 02:50:24;;;;;;;2.25;1.77;;;24.00;58.20;;;;;;4926406;29;20414;-71
2021/09/13 02:52:50;;;;;;;1.90;1.70;;;24.10;58.20;;;;;;4925933;29;20403;-72
2021/09/13 02:55:16;;;;;;;2.83;1.92;;;24.10;58.00;;;;;;4926328;29;20399;-72
2021/09/13 02:57:41;;;;;;;2.47;1.88;;;24.10;57.80;;;;;;4926205;29;20454;-70
2021/09/13 03:00:08;;;;;;;2.33;1.73;;;24.10;57.90;;;;;;4926259;29;20419;-71
2021/09/13 03:02:33;;;;;;;2.00;1.80;;;24.00;57.90;;;;;;4926157;29;20406;-72
2021/09/13 03:04:59;;;;;;;2.30;2.00;;;24.00;57.90;;;;;;4926379;29;20391;-68
2021/09/13 03:07:24;;;;;;;3.20;1.90;;;24.10;58.30;;;;;;4926333;29;20523;-69
2021/09/13 03:09:50;;;;;;;2.30;1.80;;;24.10;58.20;;;;;;4924333;29;20391;-71
2021/09/13 03:12:16;;;;;;;2.92;1.80;;;24.10;58.30;;;;;;4926126;29;20770;-72
2021/09/13 03:14:41;;;;;;;2.00;1.80;;;24.10;58.00;;;;;;4926302;29;20876;-73
2021/09/13 03:17:07;;;;;;;2.63;2.10;;;24.10;58.30;;;;;;4914450;29;20451;-65
2021/09/13 03:19:33;;;;;;;2.70;1.87;;;24.10;58.70;;;;;;4940543;29;20400;-73
2021/09/13 03:21:58;;;;;;;2.85;1.80;;;24.10;59.40;;;;;;4925556;29;20415;-72
2021/09/13 03:24:24;;;;;;;2.75;1.80;;;24.20;58.70;;;;;;4924819;29;20470;-73
2021/09/13 03:26:49;;;;;;;2.20;1.87;;;24.20;58.20;;;;;;4926024;29;20410;-73
2021/09/13 03:29:15;;;;;;;3.80;1.88;;;24.20;58.00;;;;;;4940738;29;20449;-72
2021/09/13 03:31:41;;;;;;;1.80;1.57;;;24.10;57.80;;;;;;4911181;29;20888;-69
2021/09/13 03:34:08;;;;;;;2.00;1.60;;;24.10;57.80;;;;;;4925967;29;20411;-69
2021/09/13 03:36:34;;;;;;;2.53;1.80;;;24.10;58.00;;;;;;4926039;29;20471;-73
2021/09/13 03:39:00;;;;;;;2.27;1.70;;;24.10;57.90;;;;;;4925732;29;20395;-72
2021/09/13 03:41:26;;;;;;;2.45;1.83;;;24.20;57.80;;;;;;4925922;29;20459;-71
2021/09/13 03:43:52;;;;;;;2.90;1.70;;;24.20;57.60;;;;;;4925206;29;20482;-69
2021/09/13 03:46:17;;;;;;;2.05;1.70;;;24.10;57.60;;;;;;4925907;29;20836;-70
2021/09/13 03:48:43;;;;;;;2.00;1.55;;;24.10;57.80;;;;;;4940290;29;21462;-72
2021/09/13 03:51:09;;;;;;;3.13;1.77;;;24.10;57.90;;;;;;4925907;29;20402;-72
2021/09/13 03:53:35;;;;;;;2.60;1.70;;;24.10;57.70;;;;;;4923980;29;20742;-72
2021/09/13 03:56:00;;;;;;;2.87;1.80;;;24.20;57.60;;;;;;4926344;29;20474;-70
2021/09/13 03:58:26;;;;;;;2.00;1.60;;;24.20;57.20;;;;;;4925657;29;20399;-73
2021/09/13 04:00:52;;;;;;;2.87;1.70;;;24.10;57.20;;;;;;4925353;29;20427;-67
2021/09/13 04:03:24;;;;;;;2.83;1.60;;;24.20;57.80;;;;;;4925524;29;20816;-73
2021/09/13 04:05:52;;;;;;;2.70;1.70;;;24.10;58.20;;;;;;4923925;29;20411;-69
2021/09/13 04:13:12;;;;;;;2.87;1.80;;;24.20;58.10;;;;;;4926768;29;20395;-73
2021/09/13 04:15:37;;;;;;;2.28;1.92;;;24.20;57.60;;;;;;4925290;29;20410;-70
2021/09/13 04:18:03;;;;;;;3.40;1.90;;;24.20;57.50;;;;;;4924647;29;20770;-67
2021/09/13 04:20:29;;;;;;;3.97;1.70;;;24.20;57.80;;;;;;4925361;29;20485;-72
2021/09/13 04:22:55;;;;;;;4.07;1.80;;;24.20;57.90;;;;;;4925240;29;20946;-72
2021/09/13 04:25:20;;;;;;;3.00;1.80;;;24.30;57.90;;;;;;4925394;29;20403;-72
2021/09/13 04:27:46;;;;;;;4.13;1.80;;;24.30;57.80;;;;;;4926091;29;20391;-69
2021/09/13 04:30:12;;;;;;;2.30;1.70;;;24.30;57.30;;;;;;4925269;29;20631;-69
2021/09/13 04:32:38;;;;;;;4.82;1.80;;;24.30;57.00;;;;;;4925071;29;20438;-71
2021/09/13 04:35:04;;;;;;;5.10;2.03;;;24.20;57.20;;;;;;4925233;29;20391;-72
2021/09/13 04:37:29;;;;;;;3.50;1.70;;;24.20;57.70;;;;;;4924970;29;20499;-72
2021/09/13 04:39:55;;;;;;;4.15;1.95;;;24.30;57.60;;;;;;4924515;29;20411;-73
2021/09/13 04:42:21;;;;;;;2.30;1.70;;;24.30;57.70;;;;;;4925177;29;20411;-71
2021/09/13 04:44:46;;;;;;;2.95;1.90;;;24.30;57.50;;;;;;4924489;29;20403;-67
2021/09/13 04:47:12;;;;;;;4.10;1.80;;;24.30;57.10;;;;;;4925910;29;20415;-75
2021/09/13 04:49:37;;;;;;;4.30;2.03;;;24.20;57.10;;;;;;4924656;29;20626;-71
2021/09/13 04:52:03;;;;;;;2.97;1.50;;;24.20;57.80;;;;;;4925743;29;20419;-70
2021/09/13 04:54:29;;;;;;;3.80;1.80;;;24.30;57.90;;;;;;4926243;29;20813;-73
2021/09/13 04:56:54;;;;;;;3.35;1.80;;;24.30;57.90;;;;;;4939638;29;20467;-68
2021/09/13 04:59:20;;;;;;;5.47;1.90;;;24.30;57.80;;;;;;4923544;29;20471;-70
2021/09/13 05:01:46;;;;;;;3.23;1.80;;;24.30;57.30;;;;;;4924389;29;20439;-68
2021/09/13 05:04:11;;;;;;;3.25;2.00;;;24.30;57.20;;;;;;4924948;29;20403;-67
2021/09/13 05:06:38;;;;;;;5.80;1.90;;;24.20;57.30;;;;;;4924824;29;20442;-66
2021/09/13 05:09:04;;;;;;;4.25;1.90;;;24.30;57.30;;;;;;4925054;29;20392;-73
2021/09/13 05:11:31;;;;;;;4.23;1.77;;;24.30;57.00;;;;;;4924341;29;20408;-72
2021/09/13 05:13:56;;;;;;;5.53;1.90;;;24.30;56.60;;;;;;4924466;29;20406;-73
2021/09/13 05:16:22;;;;;;;3.00;1.70;;;24.30;57.00;;;;;;4927847;29;20414;-72
2021/09/13 05:18:48;;;;;;;5.25;1.80;;;24.20;57.00;;;;;;4928087;29;20849;-73
2021/09/13 05:21:15;;;;;;;8.47;2.37;;;24.20;57.00;;;;;;4927751;29;20442;-70
2021/09/13 05:23:41;;;;;;;3.20;1.98;;;24.20;58.30;;;;;;4927892;29;20415;-69
2021/09/13 05:26:07;;;;;;;3.88;2.00;;;24.30;57.40;;;;;;4928081;29;20956;-71
2021/09/13 05:28:33;;;;;;;4.95;2.13;;;24.40;57.40;;;;;;4927774;29;20432;-72
2021/09/13 05:30:59;;;;;;;4.18;1.80;;;24.30;56.70;;;;;;4928146;29;20948;-68
2021/09/13 05:33:24;;;;;;;6.63;2.92;;;24.30;56.90;;;;;;4927579;29;20486;-72
2021/09/13 05:35:50;;;;;;;5.07;2.30;;;24.20;56.90;;;;;;4927734;29;20403;-69
2021/09/13 05:38:16;;;;;;;5.20;2.47;;;24.20;56.70;;;;;;4928074;29;20387;-72
2021/09/13 05:40:43;;;;;;;3.92;1.95;;;24.30;56.30;;;;;;4927840;29;20426;-71
2021/09/13 05:43:09;;;;;;;5.50;2.10;;;24.30;55.90;;;;;;4928013;29;20455;-71
2021/09/13 05:45:36;;;;;;;5.90;1.85;;;24.30;56.00;;;;;;4927637;29;20399;-65
2021/09/13 05:48:03;;;;;;;3.30;1.95;;;24.20;56.20;;;;;;4927464;29;20494;-69
2021/09/13 05:50:28;;;;;;;4.00;1.90;;;24.20;56.40;;;;;;4927800;29;20863;-70
2021/09/13 05:52:54;;;;;;;2.80;1.98;;;24.20;56.50;;;;;;4927907;29;21201;-72
2021/09/13 05:55:21;;;;;;;3.30;2.10;;;24.30;56.50;;;;;;4926345;29;20911;-69
2021/09/13 05:57:47;;;;;;;2.63;1.70;;;24.30;56.30;;;;;;4927152;29;20431;-71
2021/09/13 06:00:13;;;;;;;3.00;1.90;;;24.30;56.40;;;;;;4927519;29;20524;-68
2021/09/13 06:02:39;;;;;;;4.18;2.10;;;24.20;56.40;;;;;;4927709;29;20400;-72
2021/09/13 06:05:05;;;;;;;2.70;1.80;;;24.20;56.50;;;;;;4927333;29;20470;-71
2021/09/13 06:07:30;;;;;;;3.25;1.73;;;24.20;56.70;;;;;;4927420;29;20478;-73
2021/09/13 06:09:56;;;;;;;2.10;1.80;;;24.20;56.60;;;;;;4926797;29;20932;-73
2021/09/13 06:12:22;;;;;;;2.60;1.67;;;24.30;56.50;;;;;;4926083;29;20495;-71
2021/09/13 06:14:48;;;;;;;2.28;1.70;;;24.20;56.30;;;;;;4927283;29;20450;-73
2021/09/13 06:17:13;;;;;;;2.03;1.65;;;24.20;56.40;;;;;;4927396;29;20430;-70
2021/09/13 06:19:39;;;;;;;3.27;1.90;;;24.20;56.60;;;;;;4927150;29;20400;-72
2021/09/13 06:22:05;;;;;;;2.53;1.70;;;24.10;56.60;;;;;;4935803;29;20411;-67
2021/09/13 06:24:31;;;;;;;2.57;1.90;;;24.20;56.70;;;;;;4915679;29;20931;-72
2021/09/13 06:26:57;;;;;;;2.17;1.70;;;24.30;56.50;;;;;;4914188;29;20502;-73
2021/09/13 06:29:22;;;;;;;2.33;1.60;;;24.20;56.40;;;;;;4927146;29;20483;-73
2021/09/13 06:31:49;;;;;;;1.97;1.60;;;24.20;56.50;;;;;;4926494;29;20742;-71
2021/09/13 06:34:17;;;;;;;4.22;1.60;;;24.20;56.60;;;;;;4941474;29;20403;-71
2021/09/13 06:36:45;;;;;;;3.42;1.70;;;24.20;56.60;;;;;;4927146;29;20889;-72
2021/09/13 06:39:11;;;;;;;2.83;1.95;;;24.20;56.80;;;;;;4926729;29;20403;-71
2021/09/13 06:41:37;;;;;;;2.35;1.73;;;24.30;56.60;;;;;;4926653;29;20432;-69
2021/09/13 06:44:04;;;;;;;2.17;1.70;;;24.30;56.50;;;;;;4926513;29;20395;-73
2021/09/13 06:46:35;;;;;;;2.78;1.80;;;24.20;56.50;;;;;;4926666;29;20872;-72
2021/09/13 06:49:01;;;;;;;2.67;1.98;;;24.20;56.60;;;;;;4926087;29;20796;-72
2021/09/13 06:51:27;;;;;;;2.22;1.80;;;24.20;56.70;;;;;;4926696;29;20454;-71
2021/09/13 06:53:53;;;;;;;2.70;1.95;;;24.20;56.90;;;;;;4926039;29;20888;-72
2021/09/13 06:56:18;;;;;;;2.27;1.90;;;24.30;56.70;;;;;;4941155;29;20426;-70
2021/09/13 06:58:44;;;;;;;2.25;1.90;;;24.30;56.50;;;;;;4926516;29;20765;-73
2021/09/13 07:01:09;;;;;;;2.20;1.80;;;24.30;56.60;;;;;;4926321;29;20490;-70
2021/09/13 07:03:35;;;;;;;2.60;1.92;;;24.20;56.60;;;;;;4926514;29;20395;-73
2021/09/13 07:06:01;;;;;;;2.67;2.10;;;24.20;56.80;;;;;;4925960;29;20408;-73
2021/09/13 07:08:27;;;;;;;2.92;2.00;;;24.20;57.00;;;;;;4926540;29;20478;-71
2021/09/13 07:10:54;;;;;;;3.20;2.10;;;24.30;56.80;;;;;;4926249;29;20578;-69
2021/09/13 07:13:20;;;;;;;2.47;1.80;;;24.30;56.60;;;;;;4926301;29;20403;-66
2021/09/13 07:15:46;;;;;;;1.90;1.55;;;24.30;56.60;;;;;;4925940;29;20407;-72
2021/09/13 07:18:13;;;;;;;2.70;1.90;;;24.30;56.70;;;;;;4925598;29;20426;-67
2021/09/13 07:20:40;;;;;;;2.70;1.90;;;24.20;56.70;;;;;;4926038;29;20430;-72
2021/09/13 07:23:06;;;;;;;2.13;1.80;;;24.20;57.10;;;;;;4926007;29;20395;-73
2021/09/13 07:25:32;;;;;;;2.55;1.80;;;24.30;57.00;;;;;;4926053;29;20412;-73
2021/09/13 07:27:57;;;;;;;2.50;2.00;;;24.40;56.70;;;;;;4925728;29;20417;-73
2021/09/13 07:30:24;;;;;;;2.20;1.80;;;24.30;56.70;;;;;;4925765;29;20407;-72
2021/09/13 07:32:49;;;;;;;2.53;1.80;;;24.30;56.80;;;;;;4926047;29;20902;-73
2021/09/13 07:35:15;;;;;;;2.50;1.85;;;24.30;56.90;;;;;;4925732;29;20395;-68
2021/09/13 07:37:41;;;;;;;2.08;1.77;;;24.30;57.00;;;;;;4925456;29;20888;-69
2021/09/13 07:40:09;;;;;;;3.10;1.80;;;24.30;57.00;;;;;;4916861;29;20423;-69
2021/09/13 07:42:35;;;;;;;2.85;1.85;;;24.40;56.70;;;;;;4925575;29;20422;-72
2021/09/13 07:45:02;;;;;;;2.30;1.75;;;24.40;56.70;;;;;;4925876;29;20392;-72
2021/09/13 07:47:28;;;;;;;2.63;1.85;;;24.40;56.70;;;;;;4925681;29;20647;-73
2021/09/13 07:49:53;;;;;;;2.50;1.90;;;24.30;56.70;;;;;;4924791;29;21150;-72
2021/09/13 07:52:19;;;;;;;2.30;1.80;;;24.30;56.90;;;;;;4925815;29;20462;-73
2021/09/13 07:54:45;;;;;;;2.42;1.85;;;24.30;57.00;;;;;;4925728;29;20910;-69
2021/09/13 07:57:11;;;;;;;3.10;2.03;;;24.40;56.80;;;;;;4925652;29;20844;-73
2021/09/13 07:59:37;;;;;;;2.55;1.83;;;24.40;56.70;;;;;;4914428;29;20811;-72
2021/09/13 08:02:02;;;;;;;2.40;1.97;;;24.40;56.70;;;;;;4925018;29;20828;-71
2021/09/13 08:04:28;;;;;;;2.90;2.00;;;24.40;56.70;;;;;;4940308;29;20855;-70
2021/09/13 08:06:53;;;;;;;2.30;1.90;;;24.40;56.70;;;;;;4925344;29;20426;-68
2021/09/13 08:09:19;;;;;;;2.30;1.80;;;24.40;57.00;;;;;;4925438;29;20495;-72
2021/09/13 08:11:45;;;;;;;2.17;1.93;;;24.50;56.90;;;;;;4925302;29;20395;-73
2021/09/13 08:14:11;;;;;;;2.40;1.90;;;24.50;56.60;;;;;;4925039;29;20403;-71
2021/09/13 08:16:37;;;;;;;2.60;1.75;;;24.50;56.70;;;;;;4925548;29;20400;-69
2021/09/13 08:19:03;;;;;;;2.40;1.80;;;24.40;56.60;;;;;;4923883;29;20919;-74
2021/09/13 08:21:29;;;;;;;2.17;1.85;;;24.40;56.70;;;;;;4924556;29;20445;-71
2021/09/13 08:23:56;;;;;;;2.40;2.10;;;24.40;57.00;;;;;;4925042;29;20395;-69
2021/09/13 08:26:21;;;;;;;2.20;1.90;;;24.50;56.80;;;;;;4925108;29;20772;-72
2021/09/13 08:28:47;;;;;;;2.47;2.00;;;24.50;56.60;;;;;;4925415;29;20396;-74
2021/09/13 08:31:13;;;;;;;2.25;1.80;;;24.50;56.50;;;;;;4925244;29;20414;-72
2021/09/13 08:33:39;;;;;;;2.00;1.80;;;24.50;56.60;;;;;;4925170;29;20430;-73
2021/09/13 08:36:05;;;;;;;2.00;1.80;;;24.50;56.60;;;;;;4924340;29;20399;-74
2021/09/13 08:38:31;;;;;;;3.08;2.20;;;24.40;56.60;;;;;;4927879;29;20407;-72
2021/09/13 08:40:58;;;;;;;2.53;2.07;;;24.50;56.90;;;;;;4926857;29;20427;-73
2021/09/13 08:43:24;;;;;;;3.60;2.40;;;24.60;56.70;;;;;;4925107;29;20396;-68
2021/09/13 08:45:55;;;;;;;4.07;2.67;;;24.60;56.90;;;;;;4924921;29;20414;-67
2021/09/13 08:53:17;;;;;;;4.95;2.95;;;24.50;56.70;;;;;;4928698;29;20403;-73
2021/09/13 08:55:44;;;;;;;5.32;2.83;;;24.50;56.60;;;;;;4928706;29;20486;-73
2021/09/13 08:58:12;;;;;;;3.97;2.70;;;24.60;56.40;;;;;;4928338;29;20768;-73
2021/09/13 09:00:42;;;;;;;5.25;2.70;;;24.50;56.20;;;;;;4928606;29;20431;-73
2021/09/13 09:03:08;;;;;;;2.92;2.60;;;24.50;56.40;;;;;;4928728;29;20880;-69
2021/09/13 09:05:46;;;;;;;3.63;2.50;;;24.50;56.50;;;;;;4927779;29;20434;-72
2021/09/13 09:08:27;;;;;;;4.93;2.77;;;24.40;56.50;;;;;;4928100;29;20876;-71
2021/09/13 09:11:02;;;;;;;3.10;2.20;;;24.40;56.40;;;;;;4928298;29;20398;-73
2021/09/13 09:13:41;;;;;;;3.00;2.35;;;24.50;56.30;;;;;;4928472;29;20414;-71
2021/09/13 09:16:07;;;;;;;4.93;2.50;;;24.50;56.10;;;;;;4942431;29;20399;-72
2021/09/13 09:18:46;;;;;;;2.83;2.30;;;24.40;56.20;;;;;;4928087;29;20975;-72
2021/09/13 09:21:24;;;;;;;3.13;2.28;;;24.40;56.30;;;;;;4928419;29;20431;-73
2021/09/13 09:24:04;;;;;;;3.25;2.15;;;24.40;56.40;;;;;;4927961;29;20843;-69
2021/09/13 09:26:31;;;;;;;3.88;2.40;;;24.40;56.30;;;;;;4928095;29;20434;-73
2021/09/13 09:29:00;;;;;;;3.95;2.17;;;24.50;56.20;;;;;;4926568;29;20391;-72
2021/09/13 09:31:43;;;;;;;3.30;2.40;;;24.50;56.10;;;;;;4927995;29;20438;-73
2021/09/13 09:34:14;;;;;;;2.50;2.10;;;24.40;56.20;;;;;;4926089;29;20411;-71
2021/09/13 09:36:40;;;;;;;2.88;2.20;;;24.40;56.40;;;;;;4927307;29;20443;-69
2021/09/13 09:39:11;;;;;;;2.80;2.50;;;24.40;56.50;;;;;;4928061;29;20498;-66
2021/09/13 09:41:42;;;;;;;5.82;2.25;;;24.40;56.50;;;;;;4927792;29;20442;-72
2021/09/13 09:44:08;;;;;;;10.95;3.03;;;24.40;56.20;;;;;;4927377;29;21047;-73
2021/09/13 09:46:42;;;;;;;7.30;3.00;;;24.40;56.60;;;;;;4927875;29;20924;-71
2021/09/13 09:49:16;;;;;;;7.13;3.15;;;24.40;56.90;;;;;;4942066;29;20450;-71
2021/09/13 09:51:45;;;;;;;6.43;3.15;;;24.40;57.00;;;;;;4919128;29;20443;-73
2021/09/13 09:54:21;;;;;;;8.68;3.50;;;24.40;57.30;;;;;;4927101;29;20406;-73
2021/09/13 09:56:56;;;;;;;6.75;3.25;;;24.60;58.00;;;;;;4928890;29;20559;-70
2021/09/13 09:59:21;;;;;;;7.25;3.20;;;24.60;57.70;;;;;;4927767;29;20482;-73
2021/09/13 10:01:49;;;;;;;6.38;3.67;;;24.70;58.20;;;;;;4927086;29;20891;-73
2021/09/13 10:04:23;;;;;;;7.20;4.10;;;24.70;59.20;;;;;;4925821;29;20403;-73
2021/09/13 10:07:00;;;;;;;5.95;3.80;;;24.70;59.80;;;;;;4927242;29;20530;-70
2021/09/13 10:09:31;;;;;;;5.85;3.42;;;24.70;59.60;;;;;;4927206;29;20431;-72
2021/09/13 10:12:06;;;;;;;8.15;3.67;;;24.80;59.70;;;;;;4927062;29;20838;-71
2021/09/13 10:14:33;;;;;;;8.65;3.70;;;24.80;59.30;;;;;;4927389;29;20406;-70
2021/09/13 10:16:59;;;;;;;9.50;3.70;;;24.80;58.90;;;;;;4927118;29;20956;-70
2021/09/13 10:19:26;;;;;;;7.90;3.60;;;24.80;59.00;;;;;;4927217;29;20411;-73
2021/09/13 10:21:53;;;;;;;7.63;3.38;;;24.80;59.00;;;;;;4927813;29;20432;-70
2021/09/13 10:24:24;;;;;;;7.13;3.30;;;24.80;59.10;;;;;;4918565;29;20403;-70
2021/09/13 10:26:58;;;;;;;6.60;3.75;;;24.80;59.40;;;;;;4927099;29;20966;-74
2021/09/13 10:29:26;;;;;;;5.28;3.38;;;24.90;59.30;;;;;;4927030;29;20402;-67
2021/09/13 10:31:53;;;;;;;7.18;3.95;;;24.90;59.20;;;;;;4926235;29;20399;-73
2021/09/13 10:34:31;;;;;;;5.25;3.60;;;24.90;59.20;;;;;;4926644;29;20947;-73
2021/09/13 10:37:07;;;;;;;6.80;3.60;;;24.90;59.20;;;;;;4926836;29;20407;-73
2021/09/13 10:39:55;;;;;;;4.30;3.10;;;24.80;59.20;;;;;;4925639;29;20480;-68
2021/09/13 10:42:32;;;;;;;5.13;3.40;;;24.90;58.90;;;;;;4916478;29;20779;-74
2021/09/13 10:45:24;;;;;;;4.68;3.17;;;25.00;58.70;;;;;;4926887;29;20420;-72
2021/09/13 10:48:11;;;;;;;5.90;3.23;;;25.00;58.40;;;;;;4926471;29;20396;-73
2021/09/13 10:50:46;;;;;;;6.65;3.50;;;24.90;58.70;;;;;;4926462;29;20495;-72
2021/09/13 10:53:18;;;;;;;5.32;3.15;;;24.90;59.00;;;;;;4926543;29;20399;-72
2021/09/13 10:55:49;;;;;;;4.70;2.95;;;24.90;58.90;;;;;;4926172;29;20406;-72
2021/09/13 10:58:20;;;;;;;4.67;3.10;;;25.00;58.80;;;;;;4926030;29;20404;-73
2021/09/13 11:00:45;;;;;;;4.40;3.00;;;25.10;58.60;;;;;;4926451;29;20504;-73
2021/09/13 11:03:23;;;;;;;4.05;2.90;;;25.00;58.70;;;;;;4926426;29;20407;-73
2021/09/13 11:06:13;;;;;;;3.88;2.80;;;25.00;58.50;;;;;;4924852;29;20431;-72
2021/09/13 11:08:49;;;;;;;3.80;2.95;;;25.00;58.70;;;;;;4926114;29;20419;-73
2021/09/13 11:11:27;;;;;;;3.20;2.65;;;25.00;58.70;;;;;;4926228;29;20411;-73
2021/09/13 11:14:14;;;;;;;4.35;2.90;;;25.10;58.50;;;;;;4924471;29;20752;-74
2021/09/13 11:16:52;;;;;;;4.47;2.80;;;25.10;58.10;;;;;;4925532;29;20462;-70
2021/09/13 11:19:19;;;;;;;4.30;2.70;;;25.10;57.50;;;;;;4940673;29;20451;-69
2021/09/13 11:21:53;;;;;;;4.15;2.95;;;25.00;57.60;;;;;;4926312;29;20534;-65
2021/09/13 11:24:21;;;;;;;4.50;2.67;;;25.00;57.80;;;;;;4925664;29;20406;-72
2021/09/13 11:26:55;;;;;;;9.80;2.88;;;25.00;57.80;;;;;;4925875;29;20510;-72
2021/09/13 11:29:36;;;;;;;6.25;2.80;;;25.10;57.50;;;;;;4925708;29;20399;-74
2021/09/13 11:32:10;;;;;;;8.45;2.88;;;25.10;57.40;;;;;;4925937;29;20404;-73
2021/09/13 11:34:35;;;;;;;7.07;3.60;;;25.10;57.50;;;;;;4925891;29;21180;-73
2021/09/13 11:37:08;;;;;;;4.50;3.37;;;25.00;57.60;;;;;;4925847;29;20405;-73
2021/09/13 11:39:37;;;;;;;4.18;3.10;;;25.00;57.80;;;;;;4925888;29;20431;-72
2021/09/13 11:42:12;;;;;;;6.60;3.40;;;25.00;57.70;;;;;;4925273;29;20434;-74
2021/09/13 11:44:42;;;;;;;7.20;3.88;;;25.10;57.70;;;;;;4925840;29;20397;-73
2021/09/13 11:47:09;;;;;;;5.15;3.50;;;25.10;57.90;;;;;;4924370;29;20908;-70
2021/09/13 11:49:37;;;;;;;5.22;3.33;;;25.00;57.70;;;;;;4924081;29;20431;-73
2021/09/13 11:52:06;;;;;;;9.00;3.60;;;25.00;57.90;;;;;;4925134;29;20481;-72
2021/09/13 11:54:33;;;;;;;18.48;3.88;;;25.00;57.80;;;;;;4925670;29;20399;-73
2021/09/13 11:56:59;;;;;;;9.63;3.60;;;25.00;57.60;;;;;;4925691;29;20403;-72
2021/09/13 11:59:25;;;;;;;7.77;3.40;;;25.10;57.60;;;;;;4925552;29;20406;-73
2021/09/13 12:02:02;;;;;;;6.10;3.53;;;25.10;58.00;;;;;;4915453;29;20431;-74
2021/09/13 12:04:29;;;;;;;6.30;3.70;;;25.10;60.20;;;;;;4924699;29;20856;-68
2021/09/13 12:07:05;;;;;;;6.00;3.70;;;25.00;61.10;;;;;;4923946;29;20415;-66
2021/09/13 12:09:33;;;;;;;7.15;3.40;;;25.00;60.40;;;;;;4924155;29;20402;-69
2021/09/13 12:11:59;;;;;;;3.93;3.20;;;25.00;59.80;;;;;;4925157;29;20569;-73
2021/09/13 12:14:25;;;;;;;4.97;3.65;;;25.10;59.30;;;;;;4925153;29;21318;-73
2021/09/13 12:17:12;;;;;;;6.85;3.67;;;25.10;59.80;;;;;;4923714;29;20482;-74
2021/09/13 12:19:40;;;;;;;5.00;3.20;;;25.10;59.00;;;;;;4925389;29;20474;-73
2021/09/13 12:22:08;;;;;;;4.63;3.58;;;25.00;59.10;;;;;;4923630;29;20853;-71
2021/09/13 12:24:34;;;;;;;5.03;3.35;;;25.00;58.80;;;;;;4927587;29;20392;-73
2021/09/13 12:27:21;;;;;;;5.57;3.60;;;25.00;58.70;;;;;;4929438;29;20474;-74
2021/09/13 12:29:54;;;;;;;6.97;3.28;;;25.10;58.60;;;;;;4928894;29;20480;-73
2021/09/13 12:32:32;;;;;;;6.00;3.28;;;25.10;58.70;;;;;;4928802;29;20455;-72
2021/09/13 12:35:06;;;;;;;5.60;3.60;;;25.10;58.60;;;;;;4928423;29;20486;-75
2021/09/13 12:37:38;;;;;;;4.35;3.60;;;25.00;58.50;;;;;;4925291;29;21582;-73
2021/09/13 12:40:17;;;;;;;4.97;3.35;;;25.00;58.50;;;;;;4928185;29;20858;-73
2021/09/13 12:43:02;;;;;;;4.45;3.30;;;25.00;58.40;;;;;;4929191;29;20439;-73
2021/09/13 12:45:34;;;;;;;6.68;3.38;;;25.10;58.10;;;;;;4929248;29;20396;-70
2021/09/13 12:48:04;;;;;;;5.97;3.40;;;25.20;58.20;;;;;;4929151;29;20415;-71
2021/09/13 12:50:41;;;;;;;4.70;3.58;;;25.10;58.10;;;;;;4928705;29;20403;-73
2021/09/13 12:53:15;;;;;;;5.05;3.67;;;25.10;58.20;;;;;;4928737;29;20394;-73
2021/09/13 12:55:42;;;;;;;6.35;3.80;;;25.10;58.60;;;;;;4928275;29;20808;-73
2021/09/13 12:58:31;;;;;;;6.50;3.70;;;25.10;58.40;;;;;;4928626;29;20939;-74
2021/09/13 13:01:02;;;;;;;6.20;3.83;;;25.20;58.10;;;;;;4928972;29;20459;-73